Aviation Digital Data Service (ADDS)

Output produced by TAFs form (0255 UTC 24 May 2015)
found at http://www.aviationweather.gov/adds/tafs/
 
KALB 232327Z 2400/2424 29008KT P6SM FEW100 
     TEMPO 2400/2402 29008G18KT 
     FM240600 VRB03KT P6SM SCT100 
     FM241500 24010G20KT P6SM FEW060